N.dadayli — TCCW7 — position and weather

sailwx.info

Track history (hours):
 
Tides and Currents Weather Stations Pressure Air Temp Water Temp Dewpoint Dewpoint Depression Visibility Wind Speed Wind Dir Waves Ship Positions

N.dadayli

Last reported at 2016-Feb-12 06:33 UTC. Time now 2016-Feb-13 00:32 UTC.
Position N 36°40' E 014°46'.

Length 101 m; draft 8.2 m.

Type: Ship. MMSI: 271000768.

Date/timePositionNaut miles runAvg speedWind from/ knotsBaromVisibWave heightAir tempDewpointWater temp
2016-Feb-12 06:33N 36°40' E 014°46'1111.2
2016-Feb-12 05:33N 36°41' E 014°32'1111.2
2016-Feb-12 04:33N 36°43' E 014°19'1111.1
2016-Feb-12 03:33N 36°46' E 014°05'1111.2
2016-Feb-12 02:33N 36°48' E 013°51'1111.3
2016-Feb-12 01:33N 36°51' E 013°38'  
2016-Feb-08 16:32N 35°60' W 005°11'8 7.6
2016-Feb-08 15:29N 35°55' W 005°19'0 0.0
2016-Feb-08 14:32N 35°55' W 005°19'0 0.1
2016-Feb-08 13:32N 35°55' W 005°19'0 0.0
2016-Feb-08 12:32N 35°55' W 005°19'0 0.0
2016-Feb-08 11:32N 35°55' W 005°20'0 0.0
2016-Feb-08 10:32N 35°55' W 005°20'0 0.2
2016-Feb-08 09:32N 35°55' W 005°20'0 0.1
2016-Feb-08 08:32N 35°55' W 005°20'0 0.1
2016-Feb-08 07:32N 35°55' W 005°20'0 0.0
2016-Feb-08 06:32N 35°55' W 005°20'0 0.2
2016-Feb-08 05:32N 35°55' W 005°19'0 0.1
2016-Feb-08 04:32N 35°55' W 005°19'0 0.0
2016-Feb-08 03:32N 35°55' W 005°19'0 0.0
2016-Feb-08 02:32N 35°55' W 005°19'0 0.0
2016-Feb-08 01:32N 35°55' W 005°19'0 0.0
2016-Feb-08 00:32N 35°55' W 005°19'0 0.0
2016-Feb-07 23:32N 35°55' W 005°19'0 0.1
2016-Feb-07 22:32N 35°55' W 005°19'0 0.2
2016-Feb-07 21:32N 35°55' W 005°20'1 0.7
2016-Feb-07 20:33N 35°54' W 005°19'1 0.6
2016-Feb-07 19:32N 35°54' W 005°19'1 0.7
2016-Feb-07 18:33N 35°54' W 005°19'0 0.1
2016-Feb-07 17:33N 35°54' W 005°19'0 0.0
2016-Feb-07 16:33N 35°54' W 005°19'0 0.0
2016-Feb-07 15:33N 35°54' W 005°19'1 0.7
2016-Feb-07 14:34N 35°55' W 005°19'1110.3
2016-Feb-07 13:30N 35°56' W 005°32'12111.0
2016-Feb-07 02:28N 36°17' W 008°00'1510.9
2016-Feb-07 01:07N 36°21' W 008°18'712.3
2016-Feb-07 00:33N 36°22' W 008°26'1211.0
2016-Feb-06 23:31N 36°25' W 008°40'1211.7
2016-Feb-06 22:31N 36°29' W 008°54'1211.3
2016-Feb-06 21:28N 36°32' W 009°08'1211.6
2016-Feb-06 20:28N 36°37' W 009°21'1111.3
2016-Feb-06 19:31N 36°45' W 009°30'1111.5
2016-Feb-06 18:31N 36°56' W 009°35'1211.1
2016-Feb-06 17:28N 37°07' W 009°38'1111.3
2016-Feb-06 16:28N 37°18' W 009°42'1111.3
2016-Feb-06 15:31N 37°29' W 009°44'1211.2
2016-Feb-06 14:28N 37°40' W 009°47'1111.2
2016-Feb-06 13:31N 37°51' W 009°50'1111.5
2016-Feb-06 12:31N 38°02' W 009°53'1211.8
2016-Feb-06 11:31N 38°13' W 009°57'1211.4
2016-Feb-06 10:28N 38°25' W 010°01'1010.5
2016-Feb-06 09:32N 38°35' W 010°04'1211.8
2016-Feb-06 08:31N 38°46' W 010°06'1010.6
2016-Feb-06 07:33N 38°57' W 010°06'1111.4
2016-Feb-06 06:33N 39°08' W 010°06'1211.4
2016-Feb-06 05:32N 39°20' W 010°06'1312.2
2016-Feb-06 04:28N 39°33' W 010°06'1111.1
2016-Feb-06 03:31N 39°43' W 010°06'1211.7
2016-Feb-06 02:31N 39°55' W 010°06'1211.1
2016-Feb-06 01:28N 40°06' W 010°06'1111.1
2016-Feb-06 00:31N 40°17' W 010°06'1111.4
2016-Feb-05 23:31N 40°28' W 010°06'1211.0
2016-Feb-05 22:28N 40°40' W 010°05'1211.6
2016-Feb-05 21:28N 40°51' W 010°05'1111.0
2016-Feb-05 20:31N 41°02' W 010°05'1211.8
2016-Feb-05 19:31N 41°14' W 010°06'1111.4
2016-Feb-05 18:31N 41°25' W 010°06'1110.9
2016-Feb-05 17:28N 41°37' W 010°06'1211.6
2016-Feb-05 16:28N 41°48' W 010°05'1011.0
2016-Feb-05 15:31N 41°59' W 010°06'  
Track history (hours):
 
Tides and Currents Weather Stations Pressure Air Temp Water Temp Dewpoint Dewpoint Depression Visibility Wind Speed Wind Dir Waves Ship Positions

N.dadayli

Last reported at 2016-Feb-12 06:33 UTC. Time now 2016-Feb-13 00:32 UTC.
Position N 36°40' E 014°46'.

Length 101 m; draft 8.2 m.

Type: Ship. MMSI: 271000768.

Date/timePositionNaut miles runAvg speedWind from/ knotsBaromVisibWave heightAir tempDewpointWater temp
2016-Feb-12 06:33N 36°40' E 014°46'1111.2
2016-Feb-12 05:33N 36°41' E 014°32'1111.2
2016-Feb-12 04:33N 36°43' E 014°19'1111.1
2016-Feb-12 03:33N 36°46' E 014°05'1111.2
2016-Feb-12 02:33N 36°48' E 013°51'1111.3
2016-Feb-12 01:33N 36°51' E 013°38'  
2016-Feb-08 16:32N 35°60' W 005°11'8 7.6
2016-Feb-08 15:29N 35°55' W 005°19'0 0.0
2016-Feb-08 14:32N 35°55' W 005°19'0 0.1
2016-Feb-08 13:32N 35°55' W 005°19'0 0.0
2016-Feb-08 12:32N 35°55' W 005°19'0 0.0
2016-Feb-08 11:32N 35°55' W 005°20'0 0.0
2016-Feb-08 10:32N 35°55' W 005°20'0 0.2
2016-Feb-08 09:32N 35°55' W 005°20'0 0.1
2016-Feb-08 08:32N 35°55' W 005°20'0 0.1
2016-Feb-08 07:32N 35°55' W 005°20'0 0.0
2016-Feb-08 06:32N 35°55' W 005°20'0 0.2
2016-Feb-08 05:32N 35°55' W 005°19'0 0.1
2016-Feb-08 04:32N 35°55' W 005°19'0 0.0
2016-Feb-08 03:32N 35°55' W 005°19'0 0.0
2016-Feb-08 02:32N 35°55' W 005°19'0 0.0
2016-Feb-08 01:32N 35°55' W 005°19'0 0.0
2016-Feb-08 00:32N 35°55' W 005°19'0 0.0
2016-Feb-07 23:32N 35°55' W 005°19'0 0.1
2016-Feb-07 22:32N 35°55' W 005°19'0 0.2
2016-Feb-07 21:32N 35°55' W 005°20'1 0.7
2016-Feb-07 20:33N 35°54' W 005°19'1 0.6
2016-Feb-07 19:32N 35°54' W 005°19'1 0.7
2016-Feb-07 18:33N 35°54' W 005°19'0 0.1
2016-Feb-07 17:33N 35°54' W 005°19'0 0.0
2016-Feb-07 16:33N 35°54' W 005°19'0 0.0
2016-Feb-07 15:33N 35°54' W 005°19'1 0.7
2016-Feb-07 14:34N 35°55' W 005°19'1110.3
2016-Feb-07 13:30N 35°56' W 005°32'12111.0
2016-Feb-07 02:28N 36°17' W 008°00'1510.9
2016-Feb-07 01:07N 36°21' W 008°18'712.3
2016-Feb-07 00:33N 36°22' W 008°26'1211.0
2016-Feb-06 23:31N 36°25' W 008°40'1211.7
2016-Feb-06 22:31N 36°29' W 008°54'1211.3
2016-Feb-06 21:28N 36°32' W 009°08'1211.6
2016-Feb-06 20:28N 36°37' W 009°21'1111.3
2016-Feb-06 19:31N 36°45' W 009°30'1111.5
2016-Feb-06 18:31N 36°56' W 009°35'1211.1
2016-Feb-06 17:28N 37°07' W 009°38'1111.3
2016-Feb-06 16:28N 37°18' W 009°42'1111.3
2016-Feb-06 15:31N 37°29' W 009°44'1211.2
2016-Feb-06 14:28N 37°40' W 009°47'1111.2
2016-Feb-06 13:31N 37°51' W 009°50'1111.5
2016-Feb-06 12:31N 38°02' W 009°53'1211.8
2016-Feb-06 11:31N 38°13' W 009°57'1211.4
2016-Feb-06 10:28N 38°25' W 010°01'1010.5
2016-Feb-06 09:32N 38°35' W 010°04'1211.8
2016-Feb-06 08:31N 38°46' W 010°06'1010.6
2016-Feb-06 07:33N 38°57' W 010°06'1111.4
2016-Feb-06 06:33N 39°08' W 010°06'1211.4
2016-Feb-06 05:32N 39°20' W 010°06'1312.2
2016-Feb-06 04:28N 39°33' W 010°06'1111.1
2016-Feb-06 03:31N 39°43' W 010°06'1211.7
2016-Feb-06 02:31N 39°55' W 010°06'1211.1
2016-Feb-06 01:28N 40°06' W 010°06'1111.1
2016-Feb-06 00:31N 40°17' W 010°06'1111.4
2016-Feb-05 23:31N 40°28' W 010°06'1211.0
2016-Feb-05 22:28N 40°40' W 010°05'1211.6
2016-Feb-05 21:28N 40°51' W 010°05'1111.0
2016-Feb-05 20:31N 41°02' W 010°05'1211.8
2016-Feb-05 19:31N 41°14' W 010°06'1111.4
2016-Feb-05 18:31N 41°25' W 010°06'1110.9
2016-Feb-05 17:28N 41°37' W 010°06'1211.6
2016-Feb-05 16:28N 41°48' W 010°05'1011.0
2016-Feb-05 15:31N 41°59' W 010°06'  

Dump ship's entire track history